createdAt,value
2018-06-13T00:00:40.992Z,99894.79
2018-06-13T00:03:10.607Z,99892.79
2018-06-13T00:05:40.421Z,99894.88
2018-06-13T00:08:10.135Z,99897.54
2018-06-13T00:10:39.934Z,99893.73
2018-06-13T00:13:09.783Z,99896.06
2018-06-13T00:15:39.546Z,99901.08
2018-06-13T00:18:09.970Z,99901.56
2018-06-13T00:20:41.736Z,99901.72
2018-06-13T00:23:10.704Z,99901.42
2018-06-13T00:25:39.747Z,99906.44
2018-06-13T00:28:08.882Z,99913.91
2018-06-13T00:30:37.754Z,99912.75
2018-06-13T00:33:06.530Z,99908.63
2018-06-13T00:35:36.008Z,99904.45
2018-06-13T00:38:05.942Z,99903.34
2018-06-13T00:40:35.531Z,99901.40
2018-06-13T00:43:04.316Z,99914.79
2018-06-13T00:45:33.893Z,99909.41
2018-06-13T00:48:02.687Z,99908.45
2018-06-13T00:50:32.263Z,99912.30
2018-06-13T00:53:01.008Z,99916.41
2018-06-13T00:55:29.756Z,99914.58
2018-06-13T00:57:59.406Z,99909.51
2018-06-13T01:00:29.030Z,99902.91
2018-06-13T01:02:57.897Z,99901.64
2018-06-13T01:05:26.840Z,99901.22
2018-06-13T01:07:56.671Z,99895.63
2018-06-13T01:10:25.480Z,99898.19
2018-06-13T01:12:54.825Z,99904.22
2018-06-13T01:15:24.735Z,99898.03
2018-06-13T01:17:54.705Z,99897.13
2018-06-13T01:20:23.487Z,99899.07
2018-06-13T01:22:52.454Z,99904.52
2018-06-13T01:25:22.080Z,99893.56
2018-06-13T01:27:51.434Z,99894.98
2018-06-13T01:30:20.255Z,99899.52
2018-06-13T01:32:49.210Z,99890.14
2018-06-13T01:35:18.733Z,99893.26
2018-06-13T01:37:47.543Z,99896.98
2018-06-13T01:40:17.181Z,99888.13
2018-06-13T01:42:45.954Z,99884.91
2018-06-13T01:45:15.337Z,99886.26
2018-06-13T01:47:45.030Z,99900.63
2018-06-13T01:50:13.791Z,99901.39
2018-06-13T01:52:43.384Z,99900.14
2018-06-13T01:55:12.135Z,99899.33
2018-06-13T01:57:42.500Z,99897.81
2018-06-13T02:00:12.012Z,99899.23
2018-06-13T02:02:41.258Z,99893.95
2018-06-13T02:05:10.303Z,99889.32
2018-06-13T02:07:40.348Z,99892.53
2018-06-13T02:10:09.318Z,99894.17
2018-06-13T02:12:38.352Z,99894.98
2018-06-13T02:15:08.430Z,99894.47
2018-06-13T02:17:38.284Z,99892.45
2018-06-13T02:20:07.112Z,99888.00
2018-06-13T02:22:36.583Z,99901.02
2018-06-13T02:25:05.823Z,99898.42
2018-06-13T02:27:34.820Z,99896.56
2018-06-13T02:30:04.512Z,99896.94
2018-06-13T02:32:33.410Z,99903.95
2018-06-13T02:35:02.950Z,99904.81
2018-06-13T02:37:31.699Z,99900.27
2018-06-13T02:40:00.483Z,99900.65
2018-06-13T02:42:29.778Z,99902.59
2018-06-13T02:44:59.727Z,99903.02
2018-06-13T02:47:29.435Z,99910.70
2018-06-13T02:49:58.245Z,99903.00
2018-06-13T02:52:27.814Z,99910.88
2018-06-13T02:54:56.700Z,99911.56
2018-06-13T02:57:25.671Z,99915.73
2018-06-13T02:59:55.402Z,99922.58
2018-06-13T03:02:25.199Z,99921.59
2018-06-13T03:04:54.103Z,99912.91
2018-06-13T03:07:23.795Z,99914.41
2018-06-13T03:09:52.604Z,99916.81
2018-06-13T03:12:21.391Z,99919.00
2018-06-13T03:14:57.091Z,99915.27
2018-06-13T03:17:26.861Z,99911.70
2018-06-13T03:19:55.704Z,99910.18
2018-06-13T03:22:24.592Z,99913.16
2018-06-13T03:24:54.396Z,99907.95
2018-06-13T03:27:23.163Z,99914.84
2018-06-13T03:29:52.634Z,99909.34
2018-06-13T03:32:21.406Z,99907.23
2018-06-13T03:34:50.976Z,99912.63
2018-06-13T03:37:19.720Z,99912.70
2018-06-13T03:39:48.527Z,99909.53
2018-06-13T03:42:18.139Z,99911.94
2018-06-13T03:44:47.664Z,99917.14
2018-06-13T03:47:16.423Z,99924.10
2018-06-13T03:49:45.186Z,99923.47
2018-06-13T03:52:14.588Z,99924.72
2018-06-13T03:54:43.326Z,99919.01
2018-06-13T03:57:12.088Z,99917.45
2018-06-13T03:59:41.015Z,99913.98
2018-06-13T04:02:10.887Z,99911.58
2018-06-13T04:04:41.026Z,99904.57
2018-06-13T04:07:10.691Z,99904.70
2018-06-13T04:09:39.574Z,99914.18
2018-06-13T04:12:08.556Z,99907.91
2018-06-13T04:14:37.337Z,99912.17
2018-06-13T04:17:07.019Z,99914.72
2018-06-13T04:19:35.800Z,99909.27
2018-06-13T04:22:04.571Z,99916.94
2018-06-13T04:24:33.967Z,99910.78
2018-06-13T04:27:02.691Z,99913.23
2018-06-13T04:29:32.287Z,99913.65
2018-06-13T04:32:01.060Z,99909.17
2018-06-13T04:34:29.818Z,99910.18
2018-06-13T04:36:59.345Z,99906.53
2018-06-13T04:39:28.106Z,99905.05
2018-06-13T04:41:57.254Z,99901.58
2018-06-13T04:44:27.112Z,99902.47
2018-06-13T04:46:55.858Z,99902.80
2018-06-13T04:49:24.598Z,99900.34
2018-06-13T04:51:54.263Z,99897.36
2018-06-13T04:54:23.054Z,99898.44
2018-06-13T04:56:51.819Z,99901.70
2018-06-13T04:59:20.588Z,99906.84
2018-06-13T05:01:49.339Z,99910.63
2018-06-13T05:04:18.179Z,99912.81
2018-06-13T05:06:47.919Z,99912.55
2018-06-13T05:09:16.654Z,99915.52
2018-06-13T05:11:45.406Z,99909.55
2018-06-13T05:14:14.169Z,99912.80
2018-06-13T05:16:43.605Z,99905.75
2018-06-13T05:19:12.334Z,99908.73
2018-06-13T05:21:41.210Z,99910.12
2018-06-13T05:24:10.786Z,99913.62
2018-06-13T05:26:39.645Z,99913.91
2018-06-13T05:29:09.231Z,99908.20
2018-06-13T05:31:38.108Z,99909.02
2018-06-13T05:34:06.995Z,99911.20
2018-06-13T05:36:36.533Z,99915.81
2018-06-13T05:39:08.614Z,99918.23
2018-06-13T05:41:37.975Z,99922.89
2018-06-13T05:44:07.144Z,99927.46
2018-06-13T05:46:36.653Z,99929.39
2018-06-13T05:49:05.425Z,99929.92
2018-06-13T05:51:35.438Z,99922.60
2018-06-13T05:54:04.174Z,99919.91
2018-06-13T05:56:32.988Z,99915.00
2018-06-13T05:59:01.738Z,99909.83
2018-06-13T06:01:31.250Z,99911.16
2018-06-13T06:04:00.802Z,99910.62
2018-06-13T06:06:30.700Z,99907.05
2018-06-13T06:08:59.800Z,99909.45
2018-06-13T06:11:28.550Z,99911.62
2018-06-13T06:13:57.335Z,99909.95
2018-06-13T06:16:26.847Z,99906.95
2018-06-13T06:18:55.652Z,99905.34
2018-06-13T06:21:24.551Z,99914.81
2018-06-13T06:23:54.540Z,99904.95
2018-06-13T06:26:23.416Z,99909.02
2018-06-13T06:28:52.838Z,99909.23
2018-06-13T06:31:21.626Z,99910.80
2018-06-13T06:33:50.346Z,99922.20
2018-06-13T06:36:19.858Z,99915.89
2018-06-13T06:38:48.666Z,99913.13
2018-06-13T06:41:18.449Z,99912.52
2018-06-13T06:43:47.232Z,99912.85
2018-06-13T06:46:16.606Z,99911.41
2018-06-13T06:48:45.366Z,99909.50
2018-06-13T06:51:15.138Z,99915.17
2018-06-13T06:53:43.948Z,99914.88
2018-06-13T06:56:12.760Z,99915.05
2018-06-13T06:58:41.626Z,99918.22
2018-06-13T07:01:10.558Z,99917.57
2018-06-13T07:03:39.687Z,99918.95
2018-06-13T07:06:08.450Z,99920.83
2018-06-13T07:08:38.237Z,99910.44
2018-06-13T07:11:07.134Z,99919.34
2018-06-13T07:13:36.135Z,99912.14
2018-06-13T07:16:05.732Z,99915.33
2018-06-13T07:18:34.539Z,99911.89
2018-06-13T07:21:03.308Z,99914.28
2018-06-13T07:23:32.927Z,99916.72
2018-06-13T07:26:01.648Z,99917.30
2018-06-13T07:28:31.146Z,99912.10
2018-06-13T07:30:59.894Z,99919.39
2018-06-13T07:33:29.901Z,99909.42
2018-06-13T07:35:59.355Z,99917.08
2018-06-13T07:38:28.182Z,99913.03
2018-06-13T07:40:57.777Z,99908.67
2018-06-13T07:43:26.715Z,99917.66
2018-06-13T07:45:56.358Z,99914.30
2018-06-13T07:48:25.566Z,99921.22
2018-06-13T07:50:55.072Z,99922.57
2018-06-13T07:53:23.922Z,99924.92
2018-06-13T07:55:52.675Z,99932.12
2018-06-13T07:58:21.571Z,99932.61
2018-06-13T08:00:50.285Z,99928.75
2018-06-13T08:03:19.176Z,99925.47
2018-06-13T08:05:47.998Z,99928.06
2018-06-13T08:08:17.651Z,99922.59
2018-06-13T08:10:46.390Z,99927.76
2018-06-13T08:13:15.181Z,99926.78
2018-06-13T08:15:44.754Z,99917.63
2018-06-13T08:18:14.491Z,99916.47
2018-06-13T08:20:43.311Z,99921.49
2018-06-13T08:23:12.857Z,99917.55
2018-06-13T08:25:41.788Z,99916.11
2018-06-13T08:28:11.719Z,99914.42
2018-06-13T08:30:40.722Z,99914.66
2018-06-13T08:33:10.322Z,99916.86
2018-06-13T08:35:40.334Z,99906.73
2018-06-13T08:38:09.327Z,99911.02
2018-06-13T08:40:39.026Z,99911.77
2018-06-13T08:43:07.946Z,99909.55
2018-06-13T08:45:37.563Z,99904.84
2018-06-13T08:48:06.374Z,99910.17
2018-06-13T08:50:36.237Z,99913.58
2018-06-13T08:53:05.026Z,99910.33
2018-06-13T08:55:33.820Z,99911.73
2018-06-13T08:58:02.692Z,99911.36
2018-06-13T09:00:31.442Z,99906.34
2018-06-13T09:03:00.371Z,99903.76
2018-06-13T09:05:29.202Z,99902.97
2018-06-13T09:07:59.116Z,99903.63
2018-06-13T09:10:27.956Z,99905.47
2018-06-13T09:12:56.934Z,99900.98
2018-06-13T09:15:27.400Z,99901.54
2018-06-13T09:17:57.242Z,99906.30
2018-06-13T09:20:26.255Z,99906.46
2018-06-13T09:22:55.148Z,99898.21
2018-06-13T09:25:24.808Z,99908.14
2018-06-13T09:27:54.669Z,99907.13
2018-06-13T09:30:23.841Z,99896.75
2018-06-13T09:32:52.658Z,99894.83
2018-06-13T09:35:22.446Z,99899.09
2018-06-13T09:37:51.235Z,99891.59
2018-06-13T09:40:20.668Z,99892.58
2018-06-13T09:42:49.454Z,99888.83
2018-06-13T09:45:19.698Z,99888.25
2018-06-13T09:47:48.470Z,99882.53
2018-06-13T09:50:17.239Z,99878.39
2018-06-13T09:52:46.606Z,99883.06
2018-06-13T09:55:15.402Z,99883.62
2018-06-13T09:57:44.199Z,99876.47
2018-06-13T10:00:18.024Z,99869.77
2018-06-13T10:02:46.879Z,99866.08
2018-06-13T10:05:15.688Z,99870.27
2018-06-13T10:07:45.159Z,99873.84
2018-06-13T10:10:13.906Z,99873.66
2018-06-13T10:12:42.671Z,99869.69
2018-06-13T10:15:12.453Z,99867.97
2018-06-13T10:17:42.458Z,99860.56
2018-06-13T10:20:11.307Z,99855.63
2018-06-13T10:22:40.223Z,99862.11
2018-06-13T10:25:09.828Z,99858.86
2018-06-13T10:27:40.526Z,99861.41
2018-06-13T10:30:10.167Z,99858.11
2018-06-13T10:32:39.119Z,99855.95
2018-06-13T10:35:08.995Z,99862.58
2018-06-13T10:37:37.823Z,99855.73
2018-06-13T10:40:07.623Z,99848.96
2018-06-13T10:42:36.358Z,99852.37
2018-06-13T10:45:05.952Z,99846.95
2018-06-13T10:47:34.713Z,99845.66
2018-06-13T10:50:03.559Z,99846.45
2018-06-13T10:52:32.971Z,99852.53
2018-06-13T10:55:01.784Z,99844.20
2018-06-13T10:57:30.549Z,99814.64
2018-06-13T10:59:59.350Z,99829.20
2018-06-13T11:02:28.105Z,99837.41
2018-06-13T11:04:57.102Z,99836.27
2018-06-13T11:07:26.531Z,99844.80
2018-06-13T11:09:55.294Z,99832.48
2018-06-13T11:12:24.024Z,99839.07
2018-06-13T11:14:52.803Z,99834.09
2018-06-13T11:17:22.095Z,99826.89
2018-06-13T11:19:50.844Z,99835.81
2018-06-13T11:22:19.638Z,99835.90
2018-06-13T11:24:49.187Z,99836.61
2018-06-13T11:27:18.071Z,99839.31
2018-06-13T11:29:47.528Z,99837.95
2018-06-13T11:32:16.280Z,99843.58
2018-06-13T11:34:45.673Z,99840.51
2018-06-13T11:37:14.430Z,99850.54
2018-06-13T11:39:43.204Z,99859.55
2018-06-13T11:42:12.796Z,99861.13
2018-06-13T11:44:42.538Z,99854.88
2018-06-13T11:47:11.527Z,99850.23
2018-06-13T11:49:40.441Z,99848.66
2018-06-13T11:52:10.190Z,99850.15
2018-06-13T11:54:39.084Z,99849.72
2018-06-13T11:57:07.844Z,99838.71
2018-06-13T11:59:36.663Z,99855.28
2018-06-13T12:02:05.489Z,99851.84
2018-06-13T12:04:34.370Z,99851.73
2018-06-13T12:07:04.124Z,99839.47
2018-06-13T12:09:32.850Z,99836.84
2018-06-13T12:12:01.583Z,99841.94
2018-06-13T12:14:30.439Z,99839.64
2018-06-13T12:17:00.101Z,99839.52
2018-06-13T12:19:28.903Z,99839.02
2018-06-13T12:21:58.584Z,99835.53
2018-06-13T12:24:28.730Z,99830.48
2018-06-13T12:26:57.569Z,99840.55
2018-06-13T12:29:27.155Z,99838.21
2018-06-13T12:31:55.961Z,99829.67
2018-06-13T12:34:24.716Z,99829.47
2018-06-13T12:36:54.320Z,99834.16
2018-06-13T12:39:23.083Z,99831.10
2018-06-13T12:41:52.862Z,99829.44
2018-06-13T12:44:22.537Z,99831.27
2018-06-13T12:46:51.304Z,99834.75
2018-06-13T12:49:20.041Z,99830.23
2018-06-13T12:51:49.616Z,99839.19
2018-06-13T12:54:18.367Z,99840.00
2018-06-13T12:56:47.135Z,99836.70
2018-06-13T12:59:15.902Z,99840.14
2018-06-13T13:01:44.803Z,99847.00
2018-06-13T13:04:13.696Z,99853.78
2018-06-13T13:06:43.154Z,99860.99
2018-06-13T13:09:13.635Z,99862.48
2018-06-13T13:11:43.048Z,99860.69
2018-06-13T13:14:13.286Z,99852.88
2018-06-13T13:16:43.275Z,99856.74
2018-06-13T13:19:12.985Z,99856.39
2018-06-13T13:21:41.853Z,99862.03
2018-06-13T13:24:11.491Z,99865.77
2018-06-13T13:26:41.157Z,99861.16
2018-06-13T13:29:10.782Z,99857.52
2018-06-13T13:31:39.621Z,99856.52
2018-06-13T13:34:08.638Z,99849.98
2018-06-13T13:36:38.143Z,99855.38
2018-06-13T13:39:08.853Z,99853.78
2018-06-13T13:41:39.330Z,99860.20
2018-06-13T13:44:08.150Z,99854.81
2018-06-13T13:46:38.062Z,99844.92
2018-06-13T13:49:06.830Z,99843.99
2018-06-13T13:51:36.535Z,99838.37
2018-06-13T13:54:05.420Z,99839.40
2018-06-13T13:56:34.123Z,99846.14
2018-06-13T13:59:04.236Z,99853.12
2018-06-13T14:01:33.003Z,99835.59
2018-06-13T14:04:01.832Z,99840.09
2018-06-13T14:06:31.547Z,99831.25
2018-06-13T14:09:00.819Z,99846.06
2018-06-13T14:11:29.568Z,99836.88
2018-06-13T14:13:59.150Z,99846.49
2018-06-13T14:16:28.538Z,99840.37
2018-06-13T14:18:58.083Z,99864.61
2018-06-13T14:21:27.018Z,99866.70
2018-06-13T14:23:56.568Z,99880.05
2018-06-13T14:26:25.423Z,99884.73
2018-06-13T14:28:54.943Z,99906.08
2018-06-13T14:31:23.803Z,99919.63
2018-06-13T14:33:52.807Z,99919.78
2018-06-13T14:36:22.522Z,99939.17
2018-06-13T14:38:51.282Z,99946.13
2018-06-13T14:41:20.094Z,99950.41
2018-06-13T14:43:49.034Z,99950.83
2018-06-13T14:46:18.397Z,99969.16
2018-06-13T14:48:47.159Z,99985.80
2018-06-13T14:51:16.700Z,99982.60
2018-06-13T14:53:45.551Z,99992.59
2018-06-13T14:56:19.695Z,100016.69
2018-06-13T14:58:48.514Z,100016.95
2018-06-13T15:01:18.192Z,100022.06
2018-06-13T15:03:46.978Z,100024.30
2018-06-13T15:06:16.376Z,100021.11
2018-06-13T15:08:45.746Z,100019.58
2018-06-13T15:11:14.530Z,100015.08
2018-06-13T15:13:43.300Z,100005.72
2018-06-13T15:16:12.680Z,100000.45
2018-06-13T15:18:41.511Z,100013.77
2018-06-13T15:21:10.952Z,100020.64
2018-06-13T15:23:40.690Z,100030.48
2018-06-13T15:26:10.298Z,100025.40
2018-06-13T15:28:39.752Z,100022.59
2018-06-13T15:31:08.864Z,100018.28
2018-06-13T15:33:37.671Z,100009.85
2018-06-13T15:36:07.298Z,100004.44
2018-06-13T15:38:36.153Z,100006.33
2018-06-13T15:41:05.600Z,99996.86
2018-06-13T15:43:34.535Z,100002.06
2018-06-13T15:46:04.031Z,99998.01
2018-06-13T15:48:32.868Z,99991.56
2018-06-13T15:51:02.212Z,99987.20
2018-06-13T15:53:31.263Z,99990.69
2018-06-13T15:56:00.126Z,99993.64
2018-06-13T15:58:29.078Z,99996.09
2018-06-13T16:00:58.729Z,99997.45
2018-06-13T16:03:27.918Z,99991.47
2018-06-13T16:05:57.521Z,99991.20
2018-06-13T16:08:27.495Z,99995.03
2018-06-13T16:10:56.593Z,99997.71
2018-06-13T16:13:26.174Z,99992.50
2018-06-13T16:15:55.498Z,99982.12
2018-06-13T16:18:24.242Z,99978.30
2018-06-13T16:20:53.067Z,99979.19
2018-06-13T16:23:22.445Z,99969.40
2018-06-13T16:25:51.296Z,99971.30
2018-06-13T16:28:21.251Z,99970.75
2018-06-13T16:30:50.087Z,99971.50
2018-06-13T16:33:18.879Z,99985.39
2018-06-13T16:35:48.338Z,99968.50
2018-06-13T16:38:17.111Z,99968.44
2018-06-13T16:40:45.979Z,99973.31
2018-06-13T16:43:14.778Z,99971.05
2018-06-13T16:45:44.343Z,99978.81
2018-06-13T16:48:13.091Z,99973.89
2018-06-13T16:50:53.514Z,99973.59
2018-06-13T16:53:50.835Z,99981.19
2018-06-13T16:56:19.729Z,99984.70
2018-06-13T16:58:48.929Z,99989.58
2018-06-13T17:01:18.427Z,99990.87
2018-06-13T17:03:47.173Z,99991.20
2018-06-13T17:06:16.747Z,99990.05
2018-06-13T17:08:46.598Z,99988.38
2018-06-13T17:11:16.026Z,99990.03
2018-06-13T17:13:44.884Z,99991.45
2018-06-13T17:16:14.210Z,99992.98
2018-06-13T17:18:43.551Z,99988.12
2018-06-13T17:21:12.353Z,99996.92
2018-06-13T17:23:42.291Z,100001.62
2018-06-13T17:26:11.491Z,100005.63
2018-06-13T17:28:41.654Z,100008.99
2018-06-13T17:31:11.039Z,100017.65
2018-06-13T17:33:40.219Z,100015.38
2018-06-13T17:36:10.058Z,100015.78
2018-06-13T17:38:39.259Z,100016.69
2018-06-13T17:41:08.007Z,100018.36
2018-06-13T17:43:36.822Z,100019.25
2018-06-13T17:46:06.643Z,100022.84
2018-06-13T17:48:35.474Z,100025.61
2018-06-13T17:51:04.833Z,100027.53
2018-06-13T17:53:33.566Z,100028.66
2018-06-13T17:56:02.354Z,100030.33
2018-06-13T17:58:31.206Z,100037.94
2018-06-13T18:01:00.882Z,100045.03
2018-06-13T18:03:29.681Z,100048.84
2018-06-13T18:05:58.966Z,100045.59
2018-06-13T18:08:29.510Z,100053.75
2018-06-13T18:10:58.451Z,100059.70
2018-06-13T18:13:27.411Z,100066.50
2018-06-13T18:15:57.617Z,100061.61
2018-06-13T18:18:27.016Z,100058.34
2018-06-13T18:20:56.604Z,100060.77
2018-06-13T18:23:27.308Z,100063.98
2018-06-13T18:25:56.263Z,100058.01
2018-06-13T18:28:26.627Z,100057.72
2018-06-13T18:30:55.427Z,100057.71
2018-06-13T18:33:24.577Z,100062.32
2018-06-13T18:35:53.951Z,100056.35
2018-06-13T18:38:22.865Z,100052.28
2018-06-13T18:40:51.674Z,100050.09
2018-06-13T18:43:20.504Z,100045.50
2018-06-13T18:45:50.072Z,100038.15
2018-06-13T18:48:18.874Z,100034.06
2018-06-13T18:50:48.563Z,100026.72
2018-06-13T18:53:17.427Z,100033.20
2018-06-13T18:55:46.554Z,100038.06
2018-06-13T18:58:15.336Z,100032.61
2018-06-13T19:00:45.000Z,100040.19
2018-06-13T19:03:13.786Z,100038.27
2018-06-13T19:05:43.298Z,100031.23
2018-06-13T19:08:12.746Z,100027.43
2018-06-13T19:10:41.798Z,100025.75
2018-06-13T19:13:11.587Z,100031.91
2018-06-13T19:15:41.611Z,100026.47
2018-06-13T19:18:10.712Z,100030.23
2018-06-13T19:20:39.681Z,100025.61
2018-06-13T19:23:09.845Z,100025.57
2018-06-13T19:25:39.207Z,100029.63
2018-06-13T19:28:09.567Z,100028.80
2018-06-13T19:30:39.310Z,100031.77
2018-06-13T19:33:08.093Z,100033.13
2018-06-13T19:35:38.162Z,100033.64
2018-06-13T19:38:06.942Z,100034.72
2018-06-13T19:40:35.718Z,100029.30
2018-06-13T19:43:07.855Z,100028.74
2018-06-13T19:45:37.727Z,100026.30
2018-06-13T19:48:11.589Z,100026.56
2018-06-13T19:50:41.554Z,100025.46
2018-06-13T19:53:15.854Z,100026.77
2018-06-13T19:55:49.722Z,100032.45
2018-06-13T19:58:18.490Z,100034.55
2018-06-13T20:00:48.888Z,100032.08
2018-06-13T20:03:23.430Z,100037.75
2018-06-13T20:05:53.171Z,100035.84
2018-06-13T20:08:22.671Z,100039.33
2018-06-13T20:10:51.498Z,100038.23
2018-06-13T20:13:25.409Z,100039.31
2018-06-13T20:16:00.664Z,100039.28
2018-06-13T20:18:34.594Z,100036.86
2018-06-13T20:21:03.587Z,100040.08
2018-06-13T20:23:33.221Z,100032.97
2018-06-13T20:26:06.991Z,100040.53
2018-06-13T20:28:41.549Z,100044.84
2018-06-13T20:31:23.994Z,100046.20
2018-06-13T20:33:52.847Z,100049.44
2018-06-13T20:36:21.740Z,100054.57
2018-06-13T20:38:50.681Z,100061.84
2018-06-13T20:41:19.632Z,100069.95
2018-06-13T20:43:48.431Z,100068.80
2018-06-13T20:46:18.082Z,100068.77
2018-06-13T20:48:46.867Z,100070.13
2018-06-13T20:51:16.490Z,100068.45
2018-06-13T20:53:45.396Z,100069.24
2018-06-13T20:56:14.243Z,100073.55
2018-06-13T20:58:43.059Z,100073.02
2018-06-13T21:01:12.903Z,100075.41
2018-06-13T21:03:42.043Z,100075.16
2018-06-13T21:06:12.595Z,100076.51
2018-06-13T21:08:42.439Z,100077.58
2018-06-13T21:11:11.676Z,100081.92
2018-06-13T21:13:40.964Z,100078.64
2018-06-13T21:16:11.546Z,100075.16
2018-06-13T21:18:40.617Z,100078.11
2018-06-13T21:21:09.577Z,100081.34
2018-06-13T21:23:40.227Z,100080.53
2018-06-13T21:26:09.138Z,100077.83
2018-06-13T21:28:39.709Z,100076.22
2018-06-13T21:31:09.401Z,100074.30
2018-06-13T21:33:38.178Z,100075.41
2018-06-13T21:36:07.274Z,100082.70
2018-06-13T21:38:36.092Z,100082.98
2018-06-13T21:41:04.882Z,100085.97
2018-06-13T21:43:33.802Z,100088.67
2018-06-13T21:46:03.820Z,100082.70
2018-06-13T21:48:32.678Z,100078.39
2018-06-13T21:51:02.287Z,100083.80
2018-06-13T21:53:31.152Z,100079.46
2018-06-13T21:56:01.054Z,100079.21
2018-06-13T21:58:30.996Z,100079.14
2018-06-13T22:01:00.415Z,100081.81
2018-06-13T22:03:29.336Z,100087.23
2018-06-13T22:05:59.018Z,100086.91
2018-06-13T22:08:29.567Z,100087.72
2018-06-13T22:10:58.560Z,100083.59
2018-06-13T22:13:27.528Z,100077.09
2018-06-13T22:15:57.134Z,100089.51
2018-06-13T22:18:26.007Z,100089.22
2018-06-13T22:20:54.816Z,100086.27
2018-06-13T22:23:24.984Z,100088.44
2018-06-13T22:25:53.754Z,100089.79
2018-06-13T22:28:23.712Z,100082.46
2018-06-13T22:30:52.506Z,100086.77
2018-06-13T22:33:21.510Z,100077.02
2018-06-13T22:35:50.310Z,100074.77
2018-06-13T22:38:19.102Z,100078.80
2018-06-13T22:40:47.994Z,100063.88
2018-06-13T22:43:17.064Z,100068.69
2018-06-13T22:45:46.639Z,100072.17
2018-06-13T22:48:16.928Z,100072.95
2018-06-13T22:50:46.482Z,100069.14
2018-06-13T22:53:15.320Z,100060.17
2018-06-13T22:55:44.965Z,100064.44
2018-06-13T22:58:13.711Z,100065.47
2018-06-13T23:01:02.920Z,100065.42
2018-06-13T23:03:32.347Z,100064.23
2018-06-13T23:06:05.624Z,100067.71
2018-06-13T23:08:35.881Z,100073.81
2018-06-13T23:11:04.862Z,100069.73
2018-06-13T23:13:33.723Z,100079.38
2018-06-13T23:16:03.029Z,100078.55
2018-06-13T23:18:32.003Z,100077.36
2018-06-13T23:21:00.745Z,100077.84
2018-06-13T23:23:30.356Z,100079.63
2018-06-13T23:25:59.181Z,100079.83
2018-06-13T23:28:28.918Z,100068.44
2018-06-13T23:30:58.369Z,100072.20
2018-06-13T23:33:27.143Z,100075.97
2018-06-13T23:35:55.965Z,100069.17
2018-06-13T23:38:24.741Z,100071.59
2018-06-13T23:40:54.063Z,100068.36
2018-06-13T23:43:22.871Z,100066.67
2018-06-13T23:45:52.860Z,100065.56
2018-06-13T23:48:21.632Z,100075.02
2018-06-13T23:50:51.426Z,100079.35
2018-06-13T23:53:21.313Z,100076.41
2018-06-13T23:55:50.259Z,100076.94
2018-06-13T23:58:19.048Z,100078.05
